sensor_id;sensor_type;location;lat;lon;timestamp;temperature;humidity
64685;DHT22;51109;47.414;18.954;2023-04-01T00:00:57;9.10;99.90
64685;DHT22;51109;47.414;18.954;2023-04-01T00:03:25;9.10;99.90
64685;DHT22;51109;47.414;18.954;2023-04-01T00:05:55;9.20;99.90
64685;DHT22;51109;47.414;18.954;2023-04-01T00:08:21;9.20;99.90
64685;DHT22;51109;47.414;18.954;2023-04-01T00:10:47;9.20;99.90
64685;DHT22;51109;47.414;18.954;2023-04-01T00:13:13;9.20;99.90
64685;DHT22;51109;47.414;18.954;2023-04-01T00:15:40;9.20;99.90
64685;DHT22;51109;47.414;18.954;2023-04-01T00:18:06;9.20;99.90
64685;DHT22;51109;47.414;18.954;2023-04-01T00:20:32;9.20;99.90
64685;DHT22;51109;47.414;18.954;2023-04-01T00:22:58;9.10;99.90
64685;DHT22;51109;47.414;18.954;2023-04-01T00:25:24;9.20;99.90
64685;DHT22;51109;47.414;18.954;2023-04-01T00:27:50;9.10;99.90
64685;DHT22;51109;47.414;18.954;2023-04-01T00:30:16;9.10;99.90
64685;DHT22;51109;47.414;18.954;2023-04-01T00:32:43;9.10;99.90
64685;DHT22;51109;47.414;18.954;2023-04-01T00:35:09;9.20;99.90
64685;DHT22;51109;47.414;18.954;2023-04-01T00:37:37;9.10;99.90
64685;DHT22;51109;47.414;18.954;2023-04-01T00:40:04;9.10;99.90
64685;DHT22;51109;47.414;18.954;2023-04-01T00:42:31;9.10;99.90
64685;DHT22;51109;47.414;18.954;2023-04-01T00:44:57;9.10;99.90
64685;DHT22;51109;47.414;18.954;2023-04-01T00:47:25;9.00;99.90
64685;DHT22;51109;47.414;18.954;2023-04-01T00:49:53;9.00;99.90
64685;DHT22;51109;47.414;18.954;2023-04-01T00:52:24;9.00;99.90
64685;DHT22;51109;47.414;18.954;2023-04-01T00:54:56;9.00;99.90
64685;DHT22;51109;47.414;18.954;2023-04-01T00:57:35;9.00;99.90
64685;DHT22;51109;47.414;18.954;2023-04-01T01:00:05;9.00;99.90
64685;DHT22;51109;47.414;18.954;2023-04-01T01:02:33;9.00;99.90
64685;DHT22;51109;47.414;18.954;2023-04-01T01:05:00;9.00;99.90
64685;DHT22;51109;47.414;18.954;2023-04-01T01:07:40;9.00;99.90
64685;DHT22;51109;47.414;18.954;2023-04-01T01:13:01;9.00;99.90
64685;DHT22;51109;47.414;18.954;2023-04-01T01:15:36;9.00;99.90
64685;DHT22;51109;47.414;18.954;2023-04-01T01:29:28;8.90;99.90
64685;DHT22;51109;47.414;18.954;2023-04-01T01:34:34;8.80;99.90
64685;DHT22;51109;47.414;18.954;2023-04-01T01:37:07;8.90;99.90
64685;DHT22;51109;47.414;18.954;2023-04-01T01:39:36;8.80;99.90
64685;DHT22;51109;47.414;18.954;2023-04-01T01:42:04;8.80;99.90
64685;DHT22;51109;47.414;18.954;2023-04-01T01:44:32;8.80;99.90
64685;DHT22;51109;47.414;18.954;2023-04-01T01:46:59;8.80;99.90
64685;DHT22;51109;47.414;18.954;2023-04-01T01:49:27;8.80;99.90
64685;DHT22;51109;47.414;18.954;2023-04-01T01:51:56;8.80;99.90
64685;DHT22;51109;47.414;18.954;2023-04-01T01:54:22;8.80;99.90
64685;DHT22;51109;47.414;18.954;2023-04-01T01:56:52;8.80;99.90
64685;DHT22;51109;47.414;18.954;2023-04-01T01:59:22;8.80;99.90
64685;DHT22;51109;47.414;18.954;2023-04-01T02:01:51;8.80;99.90
64685;DHT22;51109;47.414;18.954;2023-04-01T02:04:19;8.90;99.90
64685;DHT22;51109;47.414;18.954;2023-04-01T02:07:04;8.90;99.90
64685;DHT22;51109;47.414;18.954;2023-04-01T02:09:33;8.80;99.90
64685;DHT22;51109;47.414;18.954;2023-04-01T02:12:03;8.70;99.90
64685;DHT22;51109;47.414;18.954;2023-04-01T02:14:38;8.70;99.90
64685;DHT22;51109;47.414;18.954;2023-04-01T02:17:12;8.70;99.90
64685;DHT22;51109;47.414;18.954;2023-04-01T02:19:50;8.70;99.90
64685;DHT22;51109;47.414;18.954;2023-04-01T02:22:24;8.60;99.90
64685;DHT22;51109;47.414;18.954;2023-04-01T02:24:54;8.50;99.90
64685;DHT22;51109;47.414;18.954;2023-04-01T02:27:23;8.50;99.90
64685;DHT22;51109;47.414;18.954;2023-04-01T02:29:51;8.40;99.90
64685;DHT22;51109;47.414;18.954;2023-04-01T02:32:19;8.40;99.90
64685;DHT22;51109;47.414;18.954;2023-04-01T02:34:46;8.40;99.90
64685;DHT22;51109;47.414;18.954;2023-04-01T02:37:13;8.30;99.90
64685;DHT22;51109;47.414;18.954;2023-04-01T02:39:40;8.30;99.90
64685;DHT22;51109;47.414;18.954;2023-04-01T02:42:07;8.30;99.90
64685;DHT22;51109;47.414;18.954;2023-04-01T02:44:33;8.30;99.90
64685;DHT22;51109;47.414;18.954;2023-04-01T02:47:00;8.20;99.90
64685;DHT22;51109;47.414;18.954;2023-04-01T02:49:26;8.20;99.90
64685;DHT22;51109;47.414;18.954;2023-04-01T02:51:52;8.20;99.90
64685;DHT22;51109;47.414;18.954;2023-04-01T02:54:18;8.20;99.90
64685;DHT22;51109;47.414;18.954;2023-04-01T02:56:44;8.00;99.90
64685;DHT22;51109;47.414;18.954;2023-04-01T02:59:11;8.00;99.90
64685;DHT22;51109;47.414;18.954;2023-04-01T03:04:05;8.00;99.90
64685;DHT22;51109;47.414;18.954;2023-04-01T03:06:31;8.10;99.90
64685;DHT22;51109;47.414;18.954;2023-04-01T03:08:57;8.20;99.90
64685;DHT22;51109;47.414;18.954;2023-04-01T03:11:23;8.20;99.90
64685;DHT22;51109;47.414;18.954;2023-04-01T03:13:49;8.20;99.90
64685;DHT22;51109;47.414;18.954;2023-04-01T03:16:16;8.30;99.90
64685;DHT22;51109;47.414;18.954;2023-04-01T03:18:42;8.20;99.90
64685;DHT22;51109;47.414;18.954;2023-04-01T03:21:15;8.20;99.90
64685;DHT22;51109;47.414;18.954;2023-04-01T03:23:41;8.20;99.90
64685;DHT22;51109;47.414;18.954;2023-04-01T03:26:07;8.10;99.90
64685;DHT22;51109;47.414;18.954;2023-04-01T03:28:33;8.20;99.90
64685;DHT22;51109;47.414;18.954;2023-04-01T03:30:59;8.00;99.90
64685;DHT22;51109;47.414;18.954;2023-04-01T03:33:25;7.90;99.90
64685;DHT22;51109;47.414;18.954;2023-04-01T03:35:51;7.80;99.90
64685;DHT22;51109;47.414;18.954;2023-04-01T03:38:18;7.80;99.90
64685;DHT22;51109;47.414;18.954;2023-04-01T03:40:45;7.80;99.90
64685;DHT22;51109;47.414;18.954;2023-04-01T03:43:11;7.80;99.90
64685;DHT22;51109;47.414;18.954;2023-04-01T03:45:47;7.70;99.90
64685;DHT22;51109;47.414;18.954;2023-04-01T03:48:14;7.80;99.90
64685;DHT22;51109;47.414;18.954;2023-04-01T03:50:40;7.70;99.90
64685;DHT22;51109;47.414;18.954;2023-04-01T03:53:07;7.50;99.90
64685;DHT22;51109;47.414;18.954;2023-04-01T03:55:33;7.50;99.90
64685;DHT22;51109;47.414;18.954;2023-04-01T03:57:59;7.50;99.90
64685;DHT22;51109;47.414;18.954;2023-04-01T04:00:28;7.60;99.90
64685;DHT22;51109;47.414;18.954;2023-04-01T04:02:55;7.50;99.90
64685;DHT22;51109;47.414;18.954;2023-04-01T04:05:24;7.60;99.90
64685;DHT22;51109;47.414;18.954;2023-04-01T04:07:51;7.70;99.90
64685;DHT22;51109;47.414;18.954;2023-04-01T04:10:17;7.70;99.90
64685;DHT22;51109;47.414;18.954;2023-04-01T04:12:43;7.50;99.90
64685;DHT22;51109;47.414;18.954;2023-04-01T04:15:09;7.40;99.90
64685;DHT22;51109;47.414;18.954;2023-04-01T04:17:35;7.40;99.90
64685;DHT22;51109;47.414;18.954;2023-04-01T04:20:01;7.30;99.90
64685;DHT22;51109;47.414;18.954;2023-04-01T04:22:28;7.30;99.90
64685;DHT22;51109;47.414;18.954;2023-04-01T04:24:53;7.40;99.90
64685;DHT22;51109;47.414;18.954;2023-04-01T04:27:19;7.40;99.90
64685;DHT22;51109;47.414;18.954;2023-04-01T04:29:45;7.50;99.90
64685;DHT22;51109;47.414;18.954;2023-04-01T04:32:11;7.50;99.90
64685;DHT22;51109;47.414;18.954;2023-04-01T04:34:37;7.50;99.90
64685;DHT22;51109;47.414;18.954;2023-04-01T04:37:03;7.60;99.90
64685;DHT22;51109;47.414;18.954;2023-04-01T04:39:29;7.60;99.90
64685;DHT22;51109;47.414;18.954;2023-04-01T04:42:01;7.60;99.90
64685;DHT22;51109;47.414;18.954;2023-04-01T04:44:28;7.70;99.90
64685;DHT22;51109;47.414;18.954;2023-04-01T04:46:57;7.80;99.90
64685;DHT22;51109;47.414;18.954;2023-04-01T04:49:34;9.30;99.90
64685;DHT22;51109;47.414;18.954;2023-04-01T04:52:04;8.00;99.90
64685;DHT22;51109;47.414;18.954;2023-04-01T04:54:30;8.00;99.90
64685;DHT22;51109;47.414;18.954;2023-04-01T04:56:58;8.10;99.90
64685;DHT22;51109;47.414;18.954;2023-04-01T04:59:25;8.80;99.90
64685;DHT22;51109;47.414;18.954;2023-04-01T05:01:51;8.10;99.90
64685;DHT22;51109;47.414;18.954;2023-04-01T05:04:41;8.10;99.90
64685;DHT22;51109;47.414;18.954;2023-04-01T05:07:07;8.10;99.90
64685;DHT22;51109;47.414;18.954;2023-04-01T05:09:33;8.20;99.90
64685;DHT22;51109;47.414;18.954;2023-04-01T05:11:59;8.20;99.90
64685;DHT22;51109;47.414;18.954;2023-04-01T05:14:25;8.20;99.90
64685;DHT22;51109;47.414;18.954;2023-04-01T05:16:51;8.30;99.90
64685;DHT22;51109;47.414;18.954;2023-04-01T05:19:17;8.40;99.90
64685;DHT22;51109;47.414;18.954;2023-04-01T05:21:44;8.50;99.90
64685;DHT22;51109;47.414;18.954;2023-04-01T05:24:10;8.60;99.90
64685;DHT22;51109;47.414;18.954;2023-04-01T05:26:36;8.80;99.90
64685;DHT22;51109;47.414;18.954;2023-04-01T05:29:10;8.90;99.90
64685;DHT22;51109;47.414;18.954;2023-04-01T05:31:44;9.00;99.90
64685;DHT22;51109;47.414;18.954;2023-04-01T05:34:19;9.10;99.90
64685;DHT22;51109;47.414;18.954;2023-04-01T05:36:47;9.20;99.90
64685;DHT22;51109;47.414;18.954;2023-04-01T05:39:17;9.30;99.90
64685;DHT22;51109;47.414;18.954;2023-04-01T05:41:44;9.40;99.90
64685;DHT22;51109;47.414;18.954;2023-04-01T05:44:16;9.50;99.90
64685;DHT22;51109;47.414;18.954;2023-04-01T05:46:57;9.60;99.90
64685;DHT22;51109;47.414;18.954;2023-04-01T05:49:30;9.70;99.90
64685;DHT22;51109;47.414;18.954;2023-04-01T05:52:06;9.80;99.90
64685;DHT22;51109;47.414;18.954;2023-04-01T05:54:43;9.90;99.90
64685;DHT22;51109;47.414;18.954;2023-04-01T05:57:25;10.00;99.90
64685;DHT22;51109;47.414;18.954;2023-04-01T05:59:54;10.00;99.90
64685;DHT22;51109;47.414;18.954;2023-04-01T06:02:24;10.10;99.90
64685;DHT22;51109;47.414;18.954;2023-04-01T06:05:18;10.10;99.90
64685;DHT22;51109;47.414;18.954;2023-04-01T06:07:44;10.10;99.90
64685;DHT22;51109;47.414;18.954;2023-04-01T06:10:20;10.10;99.90
64685;DHT22;51109;47.414;18.954;2023-04-01T06:43:59;10.40;99.90
64685;DHT22;51109;47.414;18.954;2023-04-01T06:46:45;10.60;99.90
64685;DHT22;51109;47.414;18.954;2023-04-01T06:57:54;10.70;99.90
64685;DHT22;51109;47.414;18.954;2023-04-01T07:05:36;10.80;99.90
64685;DHT22;51109;47.414;18.954;2023-04-01T07:08:06;10.80;99.90
64685;DHT22;51109;47.414;18.954;2023-04-01T07:13:13;11.00;99.90
64685;DHT22;51109;47.414;18.954;2023-04-01T07:15:43;11.10;99.90
64685;DHT22;51109;47.414;18.954;2023-04-01T07:18:18;11.30;99.90
64685;DHT22;51109;47.414;18.954;2023-04-01T07:20:46;11.40;99.90
64685;DHT22;51109;47.414;18.954;2023-04-01T07:23:29;11.50;99.90
64685;DHT22;51109;47.414;18.954;2023-04-01T07:26:21;11.60;99.90
64685;DHT22;51109;47.414;18.954;2023-04-01T07:28:50;11.60;99.90
64685;DHT22;51109;47.414;18.954;2023-04-01T07:37:10;11.70;99.90
64685;DHT22;51109;47.414;18.954;2023-04-01T07:42:53;12.00;99.90
64685;DHT22;51109;47.414;18.954;2023-04-01T07:45:30;12.20;99.90
64685;DHT22;51109;47.414;18.954;2023-04-01T07:57:12;12.60;99.90
64685;DHT22;51109;47.414;18.954;2023-04-01T07:59:56;12.40;99.90
64685;DHT22;51109;47.414;18.954;2023-04-01T08:10:14;12.60;99.90
64685;DHT22;51109;47.414;18.954;2023-04-01T08:18:46;12.50;99.90
64685;DHT22;51109;47.414;18.954;2023-04-01T08:21:32;12.50;99.90
64685;DHT22;51109;47.414;18.954;2023-04-01T08:24:33;12.60;99.90
64685;DHT22;51109;47.414;18.954;2023-04-01T08:26:55;12.50;99.90
64685;DHT22;51109;47.414;18.954;2023-04-01T08:29:40;12.50;99.90
64685;DHT22;51109;47.414;18.954;2023-04-01T08:32:26;12.60;99.90
64685;DHT22;51109;47.414;18.954;2023-04-01T08:35:09;12.70;99.90
64685;DHT22;51109;47.414;18.954;2023-04-01T08:37:41;13.00;99.90
64685;DHT22;51109;47.414;18.954;2023-04-01T08:40:31;12.90;99.90
64685;DHT22;51109;47.414;18.954;2023-04-01T08:43:30;12.90;99.90
64685;DHT22;51109;47.414;18.954;2023-04-01T08:59:43;12.70;99.90
64685;DHT22;51109;47.414;18.954;2023-04-01T09:05:35;12.70;99.90
64685;DHT22;51109;47.414;18.954;2023-04-01T09:14:28;12.90;99.90
64685;DHT22;51109;47.414;18.954;2023-04-01T09:22:21;13.40;99.90
64685;DHT22;51109;47.414;18.954;2023-04-01T09:25:08;13.50;99.90
64685;DHT22;51109;47.414;18.954;2023-04-01T09:27:56;13.30;99.90
64685;DHT22;51109;47.414;18.954;2023-04-01T09:36:05;12.90;99.90
64685;DHT22;51109;47.414;18.954;2023-04-01T09:44:35;12.80;99.90
64685;DHT22;51109;47.414;18.954;2023-04-01T09:50:16;12.80;99.90
64685;DHT22;51109;47.414;18.954;2023-04-01T09:55:21;12.60;99.90
64685;DHT22;51109;47.414;18.954;2023-04-01T10:14:52;12.60;99.90
64685;DHT22;51109;47.414;18.954;2023-04-01T10:43:20;13.10;99.90
64685;DHT22;51109;47.414;18.954;2023-04-01T10:45:59;13.20;99.90
64685;DHT22;51109;47.414;18.954;2023-04-01T10:54:47;13.30;99.90
64685;DHT22;51109;47.414;18.954;2023-04-01T11:00:30;13.60;99.90
64685;DHT22;51109;47.414;18.954;2023-04-01T11:11:18;13.60;99.90
64685;DHT22;51109;47.414;18.954;2023-04-01T11:33:23;14.40;99.90
64685;DHT22;51109;47.414;18.954;2023-04-01T11:36:32;14.40;99.90
64685;DHT22;51109;47.414;18.954;2023-04-01T11:47:48;14.70;99.90
64685;DHT22;51109;47.414;18.954;2023-04-01T11:56:27;14.20;99.90
64685;DHT22;51109;47.414;18.954;2023-04-01T12:02:36;14.30;99.90
64685;DHT22;51109;47.414;18.954;2023-04-01T12:05:34;14.40;99.90
64685;DHT22;51109;47.414;18.954;2023-04-01T12:35:01;15.50;99.90
64685;DHT22;51109;47.414;18.954;2023-04-01T12:45:35;15.10;99.90
64685;DHT22;51109;47.414;18.954;2023-04-01T13:02:36;14.60;99.90
64685;DHT22;51109;47.414;18.954;2023-04-01T13:05:31;14.80;99.90
64685;DHT22;51109;47.414;18.954;2023-04-01T13:09:02;15.10;99.90
64685;DHT22;51109;47.414;18.954;2023-04-01T13:14:19;15.60;99.90
64685;DHT22;51109;47.414;18.954;2023-04-01T13:19:49;16.30;99.90
64685;DHT22;51109;47.414;18.954;2023-04-01T13:22:41;16.90;99.90
64685;DHT22;51109;47.414;18.954;2023-04-01T13:28:37;15.80;99.90
64685;DHT22;51109;47.414;18.954;2023-04-01T13:42:12;15.20;99.90
64685;DHT22;51109;47.414;18.954;2023-04-01T14:15:05;12.70;99.90
64685;DHT22;51109;47.414;18.954;2023-04-01T14:19:57;12.50;99.90
64685;DHT22;51109;47.414;18.954;2023-04-01T14:33:41;12.70;99.90
64685;DHT22;51109;47.414;18.954;2023-04-01T14:39:00;12.80;99.90
64685;DHT22;51109;47.414;18.954;2023-04-01T14:49:39;13.20;99.90
64685;DHT22;51109;47.414;18.954;2023-04-01T14:54:50;13.60;99.90
64685;DHT22;51109;47.414;18.954;2023-04-01T14:57:24;14.00;99.90
64685;DHT22;51109;47.414;18.954;2023-04-01T15:03:32;14.30;99.90
64685;DHT22;51109;47.414;18.954;2023-04-01T15:05:55;14.60;99.90
64685;DHT22;51109;47.414;18.954;2023-04-01T15:08:54;14.60;99.90
64685;DHT22;51109;47.414;18.954;2023-04-01T15:28:47;14.70;99.90
64685;DHT22;51109;47.414;18.954;2023-04-01T15:36:41;14.70;99.90
64685;DHT22;51109;47.414;18.954;2023-04-01T15:39:14;14.70;99.90
64685;DHT22;51109;47.414;18.954;2023-04-01T15:42:25;14.80;99.90
64685;DHT22;51109;47.414;18.954;2023-04-01T15:45:03;14.80;99.90
64685;DHT22;51109;47.414;18.954;2023-04-01T15:47:35;14.80;99.90
64685;DHT22;51109;47.414;18.954;2023-04-01T15:53:21;14.90;99.90
64685;DHT22;51109;47.414;18.954;2023-04-01T16:01:18;14.90;99.90
64685;DHT22;51109;47.414;18.954;2023-04-01T16:04:22;15.00;99.90
64685;DHT22;51109;47.414;18.954;2023-04-01T16:10:26;14.80;99.90
64685;DHT22;51109;47.414;18.954;2023-04-01T16:20:57;14.70;99.90
64685;DHT22;51109;47.414;18.954;2023-04-01T16:26:19;14.70;99.90
64685;DHT22;51109;47.414;18.954;2023-04-01T16:37:07;14.40;99.90
64685;DHT22;51109;47.414;18.954;2023-04-01T16:39:42;14.30;99.90
64685;DHT22;51109;47.414;18.954;2023-04-01T16:42:38;14.20;99.90
64685;DHT22;51109;47.414;18.954;2023-04-01T16:47:49;14.10;99.90
64685;DHT22;51109;47.414;18.954;2023-04-01T16:50:27;14.00;99.90
64685;DHT22;51109;47.414;18.954;2023-04-01T16:53:08;14.00;99.90
64685;DHT22;51109;47.414;18.954;2023-04-01T16:58:40;13.80;99.90
64685;DHT22;51109;47.414;18.954;2023-04-01T17:01:15;13.80;99.90
64685;DHT22;51109;47.414;18.954;2023-04-01T17:03:46;13.70;99.90
64685;DHT22;51109;47.414;18.954;2023-04-01T17:20:47;13.00;99.90
64685;DHT22;51109;47.414;18.954;2023-04-01T17:26:02;12.70;99.90
64685;DHT22;51109;47.414;18.954;2023-04-01T17:31:21;12.10;99.90
64685;DHT22;51109;47.414;18.954;2023-04-01T17:33:54;11.90;99.90
64685;DHT22;51109;47.414;18.954;2023-04-01T17:39:04;11.60;99.90
64685;DHT22;51109;47.414;18.954;2023-04-01T17:52:35;11.20;99.90
64685;DHT22;51109;47.414;18.954;2023-04-01T17:58:50;11.00;99.90
64685;DHT22;51109;47.414;18.954;2023-04-01T18:12:10;10.70;99.90
64685;DHT22;51109;47.414;18.954;2023-04-01T18:17:25;10.60;99.90
64685;DHT22;51109;47.414;18.954;2023-04-01T18:20:43;10.50;99.90
64685;DHT22;51109;47.414;18.954;2023-04-01T18:23:36;10.40;99.90
64685;DHT22;51109;47.414;18.954;2023-04-01T18:26:28;10.40;99.90
64685;DHT22;51109;47.414;18.954;2023-04-01T18:28:59;10.40;99.90
64685;DHT22;51109;47.414;18.954;2023-04-01T18:31:42;10.30;99.90
64685;DHT22;51109;47.414;18.954;2023-04-01T18:34:20;10.20;99.90
64685;DHT22;51109;47.414;18.954;2023-04-01T18:37:00;10.20;99.90
64685;DHT22;51109;47.414;18.954;2023-04-01T18:39:40;10.10;99.90
64685;DHT22;51109;47.414;18.954;2023-04-01T18:44:50;10.10;99.90
64685;DHT22;51109;47.414;18.954;2023-04-01T18:47:30;10.10;99.90
64685;DHT22;51109;47.414;18.954;2023-04-01T18:50:26;10.10;99.90
64685;DHT22;51109;47.414;18.954;2023-04-01T18:55:43;10.20;99.90
64685;DHT22;51109;47.414;18.954;2023-04-01T19:01:16;10.20;99.90
64685;DHT22;51109;47.414;18.954;2023-04-01T19:04:07;10.20;99.90
64685;DHT22;51109;47.414;18.954;2023-04-01T19:18:02;10.30;99.90
64685;DHT22;51109;47.414;18.954;2023-04-01T19:20:55;10.30;99.90
64685;DHT22;51109;47.414;18.954;2023-04-01T19:26:56;10.20;99.90
64685;DHT22;51109;47.414;18.954;2023-04-01T19:31:54;10.20;99.90
64685;DHT22;51109;47.414;18.954;2023-04-01T19:40:28;10.30;99.90
64685;DHT22;51109;47.414;18.954;2023-04-01T19:46:14;10.20;99.90
64685;DHT22;51109;47.414;18.954;2023-04-01T19:49:05;10.30;99.90
64685;DHT22;51109;47.414;18.954;2023-04-01T19:54:39;10.10;99.90
64685;DHT22;51109;47.414;18.954;2023-04-01T20:08:02;10.20;99.90
64685;DHT22;51109;47.414;18.954;2023-04-01T20:10:38;10.20;99.90
64685;DHT22;51109;47.414;18.954;2023-04-01T20:15:47;10.20;99.90
64685;DHT22;51109;47.414;18.954;2023-04-01T20:18:39;10.10;99.90
64685;DHT22;51109;47.414;18.954;2023-04-01T20:21:42;10.00;99.90
64685;DHT22;51109;47.414;18.954;2023-04-01T20:26:42;10.00;99.90
64685;DHT22;51109;47.414;18.954;2023-04-01T20:29:35;10.10;99.90
64685;DHT22;51109;47.414;18.954;2023-04-01T20:32:18;10.10;99.90
64685;DHT22;51109;47.414;18.954;2023-04-01T20:45:57;10.00;99.90
64685;DHT22;51109;47.414;18.954;2023-04-01T20:51:36;9.80;99.90
64685;DHT22;51109;47.414;18.954;2023-04-01T20:59:50;9.80;99.90
64685;DHT22;51109;47.414;18.954;2023-04-01T21:02:42;9.70;99.90
64685;DHT22;51109;47.414;18.954;2023-04-01T21:08:17;9.60;99.90
64685;DHT22;51109;47.414;18.954;2023-04-01T21:19:16;9.40;99.90
64685;DHT22;51109;47.414;18.954;2023-04-01T21:32:58;9.20;99.90
64685;DHT22;51109;47.414;18.954;2023-04-01T21:54:54;8.60;99.90
64685;DHT22;51109;47.414;18.954;2023-04-01T21:57:50;8.60;99.90
64685;DHT22;51109;47.414;18.954;2023-04-01T22:11:13;8.90;99.90
64685;DHT22;51109;47.414;18.954;2023-04-01T22:16:27;9.20;99.90
64685;DHT22;51109;47.414;18.954;2023-04-01T22:27:11;9.40;99.90
64685;DHT22;51109;47.414;18.954;2023-04-01T22:30:31;9.40;99.90
64685;DHT22;51109;47.414;18.954;2023-04-01T22:51:52;9.50;99.90
64685;DHT22;51109;47.414;18.954;2023-04-01T22:54:32;9.50;99.90
64685;DHT22;51109;47.414;18.954;2023-04-01T22:57:28;9.50;99.90
64685;DHT22;51109;47.414;18.954;2023-04-01T23:00:07;9.50;99.90
64685;DHT22;51109;47.414;18.954;2023-04-01T23:02:40;9.50;99.90
64685;DHT22;51109;47.414;18.954;2023-04-01T23:05:12;9.50;99.90
64685;DHT22;51109;47.414;18.954;2023-04-01T23:08:01;9.50;99.90
64685;DHT22;51109;47.414;18.954;2023-04-01T23:10:41;9.40;99.90
64685;DHT22;51109;47.414;18.954;2023-04-01T23:13:20;9.40;99.90
64685;DHT22;51109;47.414;18.954;2023-04-01T23:15:51;9.40;99.90
64685;DHT22;51109;47.414;18.954;2023-04-01T23:18:30;9.30;99.90
64685;DHT22;51109;47.414;18.954;2023-04-01T23:21:21;9.20;99.90
64685;DHT22;51109;47.414;18.954;2023-04-01T23:26:35;9.00;99.90
64685;DHT22;51109;47.414;18.954;2023-04-01T23:29:14;8.90;99.90
64685;DHT22;51109;47.414;18.954;2023-04-01T23:31:42;8.80;99.90
64685;DHT22;51109;47.414;18.954;2023-04-01T23:36:44;8.70;99.90
64685;DHT22;51109;47.414;18.954;2023-04-01T23:39:34;8.70;99.90
64685;DHT22;51109;47.414;18.954;2023-04-01T23:42:11;8.90;99.90
64685;DHT22;51109;47.414;18.954;2023-04-01T23:44:38;8.90;99.90
64685;DHT22;51109;47.414;18.954;2023-04-01T23:47:06;8.80;99.90
64685;DHT22;51109;47.414;18.954;2023-04-01T23:49:53;8.80;99.90
64685;DHT22;51109;47.414;18.954;2023-04-01T23:52:26;8.90;99.90
64685;DHT22;51109;47.414;18.954;2023-04-01T23:54:58;8.90;99.90
64685;DHT22;51109;47.414;18.954;2023-04-01T23:57:30;8.90;99.90
